الصفحة الرئيسية
METAR-TAF:

METAR-TAF

مطار :

نوميا / La Tontouta, نيو كاليدونيا

دائرة عرض: 22-01S, خط طول: 166-13E, ارتفاع: 16 متر

مراقبة الطقس الحالي

تاريخ ووقت الإصدار 27 دقيقة قبل الساعة 15:30UTC
ريح 2 عقدة من الجنوب
درجة الحرارة 15°درجة مئوية
الرطوبة 94%
ضغط 1015 hPa
الرؤية 10 كم أو أكثر
الغيوم لا تقل 1500 م ولا وجود لمزنة ركامية السحاب الأسود

METAR: NWWW 221530Z AUTO 19002KT CAVOK 15/14 Q1015 TEMPO 3000 BR

زمن: 02:57 (15:57 UTC)

توقعات

تاريخ ووقت الإصدار 4ساعات و 57 دقيقة قبل الساعة 11:00UTC
التوقعات صالحة من22 الساعة 12 UTC إلى 23 الساعة 12 UTC
ريح 2 عقدةمن اتجاهات متغيرة
الرؤية 10 كم أو أكثر
غيوم قليلة على ارتفاع 4500 قدم
نظرية الاحتمالات 30% :
مؤقت
من 22 الساعة 14 UTC إلى 22 الساعة 18 UTC
الرؤية: 3000 متر
غشاء
أصبح
من 22 الساعة 22 UTC إلى 22 الساعة 24 UTC
ريح 10 عقدة من الجنوب

TAF: NWWW 221100Z 2212/2312 VRB02KT 9999 FEW045 PROB30 TEMPO 2214/2218 3000 BR BECMG 2222/2224 19010KT

أرصاد الطقس والتوقعات من أكثر من 4000 مطار (تقارير الطقس للمطار METAR والتنبؤ بالطقس بالمطارTAF).

المحطات المتاحة هي النقط الصفراء والحمراء على الخريطة.

حرك المؤشر فوق النقطة لمعرفة اسم المحطة.

ثم انقر لمعرفة أرصاد وتوقعات الطقس.

لتغيير الخارطة: اضغط على الأزرار الخضراء مع رمز الصليب الأسود للتكبير. على الزر الأخضر مع شرطة للتصغير، أو على الأسهم الخضراء للخرائط المجاورة.


METAR-TAF: